createdAt,value
2018-12-27T00:00:40.339Z,0.00
2018-12-27T00:01:40.312Z,0.00
2018-12-27T00:02:40.256Z,0.00
2018-12-27T00:03:40.218Z,0.00
2018-12-27T00:04:40.158Z,0.00
2018-12-27T00:05:40.130Z,0.00
2018-12-27T00:06:40.067Z,0.00
2018-12-27T00:07:40.032Z,0.00
2018-12-27T00:08:39.973Z,0.00
2018-12-27T00:09:39.923Z,0.00
2018-12-27T00:10:39.879Z,0.00
2018-12-27T00:11:39.826Z,0.00
2018-12-27T00:12:39.793Z,0.00
2018-12-27T00:13:39.757Z,0.00
2018-12-27T00:14:39.696Z,0.00
2018-12-27T00:15:39.648Z,0.00
2018-12-27T00:16:39.603Z,0.00
2018-12-27T00:17:39.570Z,0.00
2018-12-27T00:18:39.515Z,0.00
2018-12-27T00:19:39.456Z,0.00
2018-12-27T00:20:39.426Z,0.00
2018-12-27T00:21:39.364Z,0.00
2018-12-27T00:22:39.326Z,0.00
2018-12-27T00:23:39.293Z,0.00
2018-12-27T00:24:39.250Z,0.00
2018-12-27T00:25:39.201Z,0.00
2018-12-27T00:26:39.133Z,0.00
2018-12-27T00:27:39.095Z,0.00
2018-12-27T00:28:39.053Z,0.00
2018-12-27T00:29:39.007Z,0.00
2018-12-27T00:30:38.948Z,0.00
2018-12-27T00:31:38.915Z,0.00
2018-12-27T00:32:38.863Z,0.00
2018-12-27T00:33:38.824Z,0.00
2018-12-27T00:34:38.772Z,0.00
2018-12-27T00:35:38.729Z,0.00
2018-12-27T00:36:38.679Z,0.00
2018-12-27T00:37:38.638Z,0.00
2018-12-27T00:38:38.591Z,0.00
2018-12-27T00:39:38.553Z,0.00
2018-12-27T00:40:38.486Z,0.00
2018-12-27T00:41:38.461Z,0.00
2018-12-27T00:42:38.415Z,0.00
2018-12-27T00:43:38.356Z,0.00
2018-12-27T00:44:38.323Z,0.00
2018-12-27T00:45:38.263Z,0.00
2018-12-27T00:46:38.222Z,0.00
2018-12-27T00:47:38.176Z,0.00
2018-12-27T00:48:38.125Z,0.00
2018-12-27T00:49:38.070Z,0.00
2018-12-27T00:50:38.046Z,0.00
2018-12-27T00:51:37.999Z,0.00
2018-12-27T00:52:37.944Z,0.00
2018-12-27T00:53:37.907Z,0.00
2018-12-27T00:54:37.839Z,0.00
2018-12-27T00:55:37.806Z,0.00
2018-12-27T00:56:37.768Z,0.00
2018-12-27T00:57:37.708Z,0.00
2018-12-27T00:58:37.668Z,0.00
2018-12-27T00:59:37.608Z,0.00
2018-12-27T01:00:37.583Z,0.00
2018-12-27T01:01:37.537Z,0.00
2018-12-27T01:02:37.491Z,0.00
2018-12-27T01:03:37.444Z,0.00
2018-12-27T01:04:37.385Z,0.00
2018-12-27T01:05:37.352Z,0.00
2018-12-27T01:06:37.297Z,0.00
2018-12-27T01:07:37.292Z,0.00
2018-12-27T01:08:37.192Z,0.00
2018-12-27T01:09:37.168Z,0.00
2018-12-27T01:10:37.107Z,0.00
2018-12-27T01:11:37.052Z,0.00
2018-12-27T01:12:37.007Z,0.00
2018-12-27T01:13:36.973Z,0.00
2018-12-27T01:14:36.935Z,0.00
2018-12-27T01:15:36.889Z,0.00
2018-12-27T01:16:36.821Z,0.00
2018-12-27T01:17:36.785Z,0.00
2018-12-27T01:18:36.742Z,0.00
2018-12-27T01:19:36.682Z,0.00
2018-12-27T01:20:36.637Z,0.00
2018-12-27T01:21:36.611Z,0.00
2018-12-27T01:22:36.557Z,0.00
2018-12-27T01:23:36.497Z,0.00
2018-12-27T01:24:36.472Z,0.00
2018-12-27T01:25:36.413Z,0.00
2018-12-27T01:26:36.358Z,0.00
2018-12-27T01:27:36.314Z,0.00
2018-12-27T01:28:36.279Z,0.00
2018-12-27T01:29:36.246Z,0.00
2018-12-27T01:30:36.174Z,0.00
2018-12-27T01:31:36.139Z,0.00
2018-12-27T01:32:36.089Z,0.00
2018-12-27T01:33:36.047Z,0.00
2018-12-27T01:34:35.997Z,0.00
2018-12-27T01:35:35.943Z,0.00
2018-12-27T01:36:35.908Z,0.00
2018-12-27T01:37:35.849Z,0.00
2018-12-27T01:38:35.803Z,0.00
2018-12-27T01:39:35.781Z,0.00
2018-12-27T01:40:35.725Z,0.00
2018-12-27T01:41:35.671Z,0.00
2018-12-27T01:42:35.634Z,0.00
2018-12-27T01:43:35.580Z,0.00
2018-12-27T01:44:35.525Z,0.00
2018-12-27T01:45:35.492Z,0.00
2018-12-27T01:46:35.455Z,0.00
2018-12-27T01:47:35.399Z,0.00
2018-12-27T01:48:35.341Z,0.00
2018-12-27T01:49:35.307Z,0.00
2018-12-27T01:50:35.247Z,0.00
2018-12-27T01:51:35.201Z,0.00
2018-12-27T01:52:35.167Z,0.00
2018-12-27T01:53:35.107Z,0.00
2018-12-27T01:54:35.075Z,0.00
2018-12-27T01:55:35.028Z,0.00
2018-12-27T01:56:34.969Z,0.00
2018-12-27T01:57:34.936Z,0.00
2018-12-27T01:58:34.883Z,0.00
2018-12-27T01:59:34.853Z,0.00
2018-12-27T02:00:34.797Z,0.00
2018-12-27T02:01:34.759Z,0.00
2018-12-27T02:02:34.712Z,0.00
2018-12-27T02:03:34.658Z,0.00
2018-12-27T02:04:34.611Z,0.00
2018-12-27T02:05:34.573Z,0.00
2018-12-27T02:06:34.505Z,0.00
2018-12-27T02:07:34.467Z,0.00
2018-12-27T02:08:34.426Z,0.00
2018-12-27T02:09:34.394Z,0.00
2018-12-27T02:10:34.329Z,0.00
2018-12-27T02:11:34.286Z,0.00
2018-12-27T02:12:34.228Z,0.00
2018-12-27T02:13:34.196Z,0.00
2018-12-27T02:14:34.156Z,0.00
2018-12-27T02:15:34.110Z,0.00
2018-12-27T02:16:34.042Z,0.00
2018-12-27T02:17:34.009Z,0.00
2018-12-27T02:18:33.971Z,0.00
2018-12-27T02:19:33.904Z,0.00
2018-12-27T02:20:33.857Z,0.00
2018-12-27T02:21:33.811Z,0.00
2018-12-27T02:22:33.764Z,0.00
2018-12-27T02:23:33.718Z,0.00
2018-12-27T02:24:33.685Z,0.00
2018-12-27T02:25:33.647Z,0.00
2018-12-27T02:26:33.603Z,0.00
2018-12-27T02:27:33.540Z,0.00
2018-12-27T02:28:33.508Z,0.00
2018-12-27T02:29:33.453Z,0.00
2018-12-27T02:30:33.395Z,0.00
2018-12-27T02:31:33.349Z,0.00
2018-12-27T02:32:33.317Z,0.00
2018-12-27T02:33:35.452Z,0.00
2018-12-27T02:34:33.217Z,0.00
2018-12-27T02:35:33.183Z,0.00
2018-12-27T02:36:33.116Z,0.00
2018-12-27T02:37:33.081Z,0.00
2018-12-27T02:38:33.031Z,0.00
2018-12-27T02:39:32.999Z,0.00
2018-12-27T02:40:32.944Z,0.00
2018-12-27T02:41:32.885Z,0.00
2018-12-27T02:42:32.854Z,0.00
2018-12-27T02:43:32.792Z,0.00
2018-12-27T02:44:32.753Z,0.00
2018-12-27T02:45:32.708Z,0.00
2018-12-27T02:46:32.675Z,0.00
2018-12-27T02:47:32.607Z,0.00
2018-12-27T02:48:32.582Z,0.00
2018-12-27T02:49:32.528Z,0.00
2018-12-27T02:50:32.482Z,0.00
2018-12-27T02:51:32.422Z,0.00
2018-12-27T02:52:32.383Z,0.00
2018-12-27T02:53:32.344Z,0.00
2018-12-27T02:54:32.305Z,0.00
2018-12-27T02:55:32.238Z,0.00
2018-12-27T02:56:32.211Z,0.00
2018-12-27T02:57:32.153Z,0.00
2018-12-27T02:58:32.108Z,0.00
2018-12-27T02:59:32.127Z,0.00
2018-12-27T03:00:32.028Z,0.00
2018-12-27T03:01:31.981Z,0.00
2018-12-27T03:02:31.931Z,0.00
2018-12-27T03:03:31.868Z,0.00
2018-12-27T03:04:31.822Z,0.00
2018-12-27T03:05:31.804Z,0.00
2018-12-27T03:06:31.742Z,0.00
2018-12-27T03:07:31.704Z,0.00
2018-12-27T03:08:31.658Z,0.00
2018-12-27T03:09:31.605Z,0.00
2018-12-27T03:10:31.557Z,0.00
2018-12-27T03:11:31.507Z,0.00
2018-12-27T03:12:31.453Z,0.00
2018-12-27T03:13:31.407Z,0.00
2018-12-27T03:14:31.382Z,0.00
2018-12-27T03:15:31.330Z,0.00
2018-12-27T03:16:31.277Z,0.00
2018-12-27T03:17:31.228Z,0.00
2018-12-27T03:18:31.182Z,0.00
2018-12-27T03:19:31.138Z,0.00
2018-12-27T03:20:31.082Z,0.00
2018-12-27T03:21:31.059Z,0.00
2018-12-27T03:22:31.011Z,0.00
2018-12-27T03:23:30.965Z,0.00
2018-12-27T03:24:30.907Z,0.00
2018-12-27T03:25:30.878Z,0.00
2018-12-27T03:26:30.805Z,0.00
2018-12-27T03:27:30.766Z,0.00
2018-12-27T03:28:30.734Z,0.00
2018-12-27T03:29:30.674Z,0.00
2018-12-27T03:30:30.629Z,0.00
2018-12-27T03:31:30.589Z,0.00
2018-12-27T03:32:30.543Z,0.00
2018-12-27T03:33:30.505Z,0.00
2018-12-27T03:34:30.450Z,0.00
2018-12-27T03:35:30.402Z,0.00
2018-12-27T03:36:30.344Z,0.00
2018-12-27T03:37:30.309Z,0.00
2018-12-27T03:38:30.251Z,0.00
2018-12-27T03:39:30.219Z,0.00
2018-12-27T03:40:30.158Z,0.00
2018-12-27T03:41:30.113Z,0.00
2018-12-27T03:42:30.071Z,0.00
2018-12-27T03:43:30.047Z,0.00
2018-12-27T03:44:29.998Z,0.00
2018-12-27T03:45:29.928Z,0.00
2018-12-27T03:46:29.895Z,0.00
2018-12-27T03:47:29.836Z,0.00
2018-12-27T03:48:29.789Z,0.00
2018-12-27T03:49:29.743Z,0.00
2018-12-27T03:50:29.800Z,0.00
2018-12-27T03:51:29.673Z,0.00
2018-12-27T03:52:29.617Z,0.00
2018-12-27T03:53:29.580Z,0.00
2018-12-27T03:54:29.513Z,0.00
2018-12-27T03:55:29.479Z,0.00
2018-12-27T03:56:29.436Z,0.00
2018-12-27T03:57:29.387Z,0.00
2018-12-27T03:58:29.340Z,0.00
2018-12-27T03:59:29.290Z,0.00
2018-12-27T04:00:29.246Z,0.00
2018-12-27T04:01:29.210Z,0.00
2018-12-27T04:02:29.165Z,0.00
2018-12-27T04:03:29.119Z,0.00
2018-12-27T04:04:29.073Z,0.00
2018-12-27T04:05:29.004Z,0.00
2018-12-27T04:06:28.971Z,0.00
2018-12-27T04:07:28.928Z,0.00
2018-12-27T04:08:28.880Z,0.00
2018-12-27T04:09:28.839Z,0.00
2018-12-27T04:10:28.790Z,0.00
2018-12-27T04:11:28.740Z,0.00
2018-12-27T04:12:28.702Z,0.00
2018-12-27T04:13:28.635Z,0.00
2018-12-27T04:14:28.610Z,0.00
2018-12-27T04:15:28.551Z,0.00
2018-12-27T04:16:28.505Z,0.00
2018-12-27T04:17:28.459Z,0.00
2018-12-27T04:18:28.419Z,0.00
2018-12-27T04:19:28.379Z,0.00
2018-12-27T04:20:28.312Z,0.00
2018-12-27T04:21:28.276Z,0.00
2018-12-27T04:22:28.241Z,0.00
2018-12-27T04:23:28.180Z,0.00
2018-12-27T04:24:28.149Z,0.00
2018-12-27T04:25:28.081Z,0.00
2018-12-27T04:26:28.050Z,0.00
2018-12-27T04:27:27.997Z,0.00
2018-12-27T04:28:27.963Z,0.00
2018-12-27T04:29:27.905Z,0.00
2018-12-27T04:30:27.858Z,0.00
2018-12-27T04:31:27.812Z,0.00
2018-12-27T04:32:27.760Z,0.00
2018-12-27T04:33:27.734Z,0.00
2018-12-27T04:34:27.678Z,0.00
2018-12-27T04:35:27.626Z,0.00
2018-12-27T04:36:27.581Z,0.00
2018-12-27T04:37:27.548Z,0.00
2018-12-27T04:38:27.480Z,0.00
2018-12-27T04:39:27.455Z,0.00
2018-12-27T04:40:27.389Z,0.00
2018-12-27T04:41:27.356Z,0.00
2018-12-27T04:42:27.318Z,0.00
2018-12-27T04:43:27.265Z,0.00
2018-12-27T04:44:27.217Z,0.00
2018-12-27T04:45:27.181Z,0.00
2018-12-27T04:46:27.134Z,0.00
2018-12-27T04:47:27.078Z,0.00
2018-12-27T04:48:27.019Z,0.00
2018-12-27T04:49:26.994Z,0.00
2018-12-27T04:50:26.927Z,0.00
2018-12-27T04:51:26.902Z,0.00
2018-12-27T04:52:26.835Z,0.00
2018-12-27T04:53:26.797Z,0.00
2018-12-27T04:54:26.763Z,0.00
2018-12-27T04:55:26.704Z,0.00
2018-12-27T04:56:26.649Z,0.00
2018-12-27T04:57:26.611Z,0.00
2018-12-27T04:58:26.557Z,0.00
2018-12-27T04:59:26.525Z,0.00
2018-12-27T05:00:26.471Z,0.00
2018-12-27T05:01:26.418Z,0.00
2018-12-27T05:02:26.382Z,0.00
2018-12-27T05:03:26.346Z,0.00
2018-12-27T05:04:26.292Z,0.00
2018-12-27T05:05:26.250Z,0.00
2018-12-27T05:06:26.201Z,0.00
2018-12-27T05:07:26.149Z,0.00
2018-12-27T05:08:26.102Z,0.00
2018-12-27T05:09:26.048Z,0.00
2018-12-27T05:10:26.015Z,0.00
2018-12-27T05:11:25.978Z,0.00
2018-12-27T05:12:25.917Z,0.00
2018-12-27T05:13:25.884Z,0.00
2018-12-27T05:14:25.826Z,0.00
2018-12-27T05:15:25.793Z,0.00
2018-12-27T05:16:25.738Z,0.00
2018-12-27T05:17:25.687Z,0.00
2018-12-27T05:18:25.640Z,0.00
2018-12-27T05:19:25.586Z,0.00
2018-12-27T05:20:25.554Z,0.00
2018-12-27T05:21:25.515Z,0.00
2018-12-27T05:22:25.456Z,0.00
2018-12-27T05:23:25.415Z,0.00
2018-12-27T05:24:25.355Z,0.00
2018-12-27T05:25:25.309Z,0.00
2018-12-27T05:26:25.284Z,0.00
2018-12-27T05:27:25.238Z,0.00
2018-12-27T05:28:25.171Z,0.00
2018-12-27T05:29:25.132Z,0.00
2018-12-27T05:30:25.077Z,0.00
2018-12-27T05:31:25.044Z,0.00
2018-12-27T05:32:25.006Z,0.00
2018-12-27T05:33:24.960Z,0.00
2018-12-27T05:34:26.392Z,0.00
2018-12-27T05:35:24.868Z,0.00
2018-12-27T05:36:24.800Z,0.00
2018-12-27T05:37:24.756Z,0.00
2018-12-27T05:38:24.720Z,0.00
2018-12-27T05:39:24.667Z,0.00
2018-12-27T05:40:24.626Z,0.00
2018-12-27T05:41:24.576Z,0.00
2018-12-27T05:42:24.530Z,0.00
2018-12-27T05:43:24.491Z,0.00
2018-12-27T05:44:24.437Z,0.00
2018-12-27T05:45:24.391Z,0.00
2018-12-27T05:46:24.337Z,0.00
2018-12-27T05:47:24.313Z,0.00
2018-12-27T05:48:24.247Z,0.00
2018-12-27T05:49:24.206Z,0.00
2018-12-27T05:50:24.173Z,0.00
2018-12-27T05:51:24.127Z,0.00
2018-12-27T05:52:24.068Z,0.00
2018-12-27T05:53:24.025Z,0.00
2018-12-27T05:54:23.975Z,0.00
2018-12-27T05:55:23.921Z,0.00
2018-12-27T05:56:23.881Z,0.00
2018-12-27T05:57:23.835Z,0.00
2018-12-27T05:58:23.790Z,0.00
2018-12-27T05:59:23.746Z,0.00
2018-12-27T06:00:23.689Z,0.00
2018-12-27T06:01:23.653Z,0.00
2018-12-27T06:02:23.604Z,0.00
2018-12-27T06:03:23.560Z,0.00
2018-12-27T06:04:23.503Z,0.00
2018-12-27T06:05:23.478Z,0.00
2018-12-27T06:06:23.419Z,0.00
2018-12-27T06:07:23.366Z,0.00
2018-12-27T06:08:23.330Z,0.00
2018-12-27T06:09:23.271Z,0.00
2018-12-27T06:10:23.237Z,0.00
2018-12-27T06:11:23.194Z,0.00
2018-12-27T06:12:23.139Z,0.00
2018-12-27T06:13:23.093Z,0.00
2018-12-27T06:14:23.039Z,0.00
2018-12-27T06:15:22.993Z,0.00
2018-12-27T06:16:22.954Z,0.00
2018-12-27T06:17:22.923Z,0.00
2018-12-27T06:18:22.861Z,0.00
2018-12-27T06:19:22.815Z,0.00
2018-12-27T06:20:22.782Z,0.00
2018-12-27T06:21:22.722Z,0.00
2018-12-27T06:22:22.670Z,0.00
2018-12-27T06:23:22.643Z,0.00
2018-12-27T06:24:22.589Z,0.00
2018-12-27T06:25:22.537Z,0.00
2018-12-27T06:26:22.504Z,0.00
2018-12-27T06:27:22.450Z,0.00
2018-12-27T06:28:22.412Z,0.00
2018-12-27T06:29:22.366Z,0.00
2018-12-27T06:30:22.311Z,0.00
2018-12-27T06:31:22.259Z,0.00
2018-12-27T06:32:22.227Z,0.00
2018-12-27T06:33:22.172Z,0.00
2018-12-27T06:34:22.134Z,0.00
2018-12-27T06:35:22.088Z,0.00
2018-12-27T06:36:22.029Z,0.00
2018-12-27T06:37:21.983Z,0.00
2018-12-27T06:38:21.936Z,0.00
2018-12-27T06:39:21.903Z,0.00
2018-12-27T06:40:21.859Z,0.00
2018-12-27T06:41:21.789Z,0.00
2018-12-27T06:42:21.755Z,0.00
2018-12-27T06:43:21.705Z,0.00
2018-12-27T06:44:21.672Z,0.00
2018-12-27T06:45:21.616Z,0.00
2018-12-27T06:46:21.578Z,0.00
2018-12-27T06:47:21.532Z,0.00
2018-12-27T06:48:21.485Z,0.00
2018-12-27T06:49:21.439Z,0.00
2018-12-27T06:50:21.372Z,0.00
2018-12-27T06:51:21.335Z,0.00
2018-12-27T06:52:21.290Z,0.00
2018-12-27T06:53:21.246Z,0.00
2018-12-27T06:54:21.199Z,0.00
2018-12-27T06:55:21.140Z,0.00
2018-12-27T06:56:21.115Z,0.00
2018-12-27T06:57:21.069Z,0.00
2018-12-27T06:58:21.001Z,0.00
2018-12-27T06:59:20.969Z,0.00
2018-12-27T07:00:20.916Z,0.00
2018-12-27T07:01:20.869Z,0.00
2018-12-27T07:02:20.837Z,0.00
2018-12-27T07:03:20.790Z,0.00
2018-12-27T07:04:20.722Z,0.00
2018-12-27T07:05:20.697Z,0.00
2018-12-27T07:06:20.643Z,0.00
2018-12-27T07:07:20.583Z,0.00
2018-12-27T07:08:20.550Z,0.00
2018-12-27T07:09:20.491Z,0.00
2018-12-27T07:10:20.458Z,0.00
2018-12-27T07:11:20.397Z,0.00
2018-12-27T07:12:20.375Z,0.00
2018-12-27T07:13:20.317Z,0.00
2018-12-27T07:14:20.281Z,0.00
2018-12-27T07:15:20.224Z,0.00
2018-12-27T07:16:20.166Z,0.00
2018-12-27T07:17:20.127Z,0.00
2018-12-27T07:18:20.094Z,0.00
2018-12-27T07:19:20.035Z,0.00
2018-12-27T07:20:19.995Z,0.00
2018-12-27T07:21:19.985Z,0.00
2018-12-27T07:22:19.894Z,0.00
2018-12-27T07:23:19.861Z,0.00
2018-12-27T07:24:19.802Z,0.00
2018-12-27T07:25:19.760Z,0.00
2018-12-27T07:26:19.701Z,0.00
2018-12-27T07:27:19.656Z,0.00
2018-12-27T07:28:19.621Z,0.00
2018-12-27T07:29:19.562Z,0.00
2018-12-27T07:30:19.536Z,0.00
2018-12-27T07:31:19.490Z,0.00
2018-12-27T07:32:19.422Z,0.00
2018-12-27T07:33:19.376Z,0.00
2018-12-27T07:34:19.330Z,0.00
2018-12-27T07:35:19.283Z,0.00
2018-12-27T07:36:19.237Z,0.00
2018-12-27T07:37:19.211Z,0.00
2018-12-27T07:38:19.164Z,0.00
2018-12-27T07:39:19.097Z,0.00
2018-12-27T07:40:19.072Z,0.00
2018-12-27T07:41:19.004Z,0.00
2018-12-27T07:42:18.978Z,0.00
2018-12-27T07:43:18.910Z,0.00
2018-12-27T07:44:18.872Z,0.00
2018-12-27T07:45:18.830Z,0.00
2018-12-27T07:46:18.792Z,0.00
2018-12-27T07:47:18.725Z,0.00
2018-12-27T07:48:18.678Z,0.00
2018-12-27T07:49:18.631Z,0.00
2018-12-27T07:50:18.597Z,0.00
2018-12-27T07:51:18.547Z,0.00
2018-12-27T07:52:18.492Z,0.00
2018-12-27T07:53:18.449Z,0.00
2018-12-27T07:54:18.420Z,0.00
2018-12-27T07:55:18.352Z,0.00
2018-12-27T07:56:18.327Z,0.00
2018-12-27T07:57:18.273Z,0.00
2018-12-27T07:58:18.226Z,0.00
2018-12-27T07:59:18.174Z,0.00
2018-12-27T08:00:18.132Z,0.00
2018-12-27T08:01:18.094Z,0.00
2018-12-27T08:02:18.026Z,0.00
2018-12-27T08:03:17.988Z,0.00
2018-12-27T08:04:17.945Z,0.00
2018-12-27T08:05:17.902Z,0.00
2018-12-27T08:06:20.879Z,0.00
2018-12-27T08:07:17.814Z,0.00
2018-12-27T08:08:17.769Z,0.00
2018-12-27T08:09:17.710Z,0.00
2018-12-27T08:10:17.675Z,0.00
2018-12-27T08:11:17.628Z,0.00
2018-12-27T08:12:17.568Z,0.00
2018-12-27T08:13:17.514Z,0.00
2018-12-27T08:14:17.480Z,0.00
2018-12-27T08:15:17.429Z,0.00
2018-12-27T08:16:17.395Z,0.00
2018-12-27T08:17:17.339Z,0.00
2018-12-27T08:18:17.290Z,0.00
2018-12-27T08:19:17.255Z,0.00
2018-12-27T08:20:17.196Z,0.00
2018-12-27T08:21:17.141Z,0.00
2018-12-27T08:22:17.115Z,0.00
2018-12-27T08:23:17.060Z,0.00
2018-12-27T08:24:17.016Z,0.00
2018-12-27T08:25:16.968Z,0.00
2018-12-27T08:26:16.916Z,0.00
2018-12-27T08:27:16.882Z,0.00
2018-12-27T08:28:16.815Z,0.00
2018-12-27T08:29:16.783Z,0.00
2018-12-27T08:30:16.734Z,0.00
2018-12-27T08:31:16.687Z,0.00
2018-12-27T08:32:16.640Z,0.00
2018-12-27T08:33:16.595Z,0.00
2018-12-27T08:34:16.536Z,0.00
2018-12-27T08:35:16.497Z,0.00
2018-12-27T08:36:16.442Z,0.00
2018-12-27T08:37:16.404Z,5.63
2018-12-27T08:38:16.370Z,5.63
2018-12-27T08:39:16.316Z,5.63
2018-12-27T08:40:16.265Z,5.63
2018-12-27T08:41:16.224Z,5.63
2018-12-27T08:42:16.184Z,5.63
2018-12-27T08:43:16.125Z,5.63
2018-12-27T08:44:16.080Z,5.63
2018-12-27T08:45:16.037Z,5.63
2018-12-27T08:46:15.998Z,5.63
2018-12-27T08:47:15.952Z,5.63
2018-12-27T08:48:15.897Z,5.63
2018-12-27T08:49:15.838Z,5.63
2018-12-27T08:50:15.812Z,5.63
2018-12-27T08:51:15.766Z,5.63
2018-12-27T08:52:15.711Z,11.25
2018-12-27T08:53:15.754Z,11.25
2018-12-27T08:54:15.605Z,11.25
2018-12-27T08:55:15.559Z,11.25
2018-12-27T08:56:15.536Z,11.25
2018-12-27T08:57:15.487Z,11.25
2018-12-27T08:58:15.425Z,16.88
2018-12-27T08:59:15.395Z,16.88
2018-12-27T09:00:15.329Z,22.50
2018-12-27T09:01:15.305Z,28.13
2018-12-27T09:02:15.256Z,28.13
2018-12-27T09:03:15.195Z,45.00
2018-12-27T09:04:15.164Z,61.88
2018-12-27T09:05:18.826Z,90.00
2018-12-27T09:06:15.050Z,95.63
2018-12-27T09:07:15.015Z,90.00
2018-12-27T09:08:14.969Z,95.63
2018-12-27T09:09:14.917Z,106.88
2018-12-27T09:10:14.863Z,123.75
2018-12-27T09:11:14.824Z,112.50
2018-12-27T09:12:14.771Z,78.75
2018-12-27T09:13:14.732Z,73.13
2018-12-27T09:14:14.679Z,56.25
2018-12-27T09:15:14.654Z,56.25
2018-12-27T09:16:14.586Z,56.25
2018-12-27T09:17:14.540Z,56.25
2018-12-27T09:18:14.507Z,61.88
2018-12-27T09:19:14.456Z,67.50
2018-12-27T09:20:14.415Z,84.38
2018-12-27T09:21:14.369Z,112.50
2018-12-27T09:22:14.333Z,163.13
2018-12-27T09:23:14.271Z,860.63
2018-12-27T09:24:14.238Z,798.75
2018-12-27T09:25:14.198Z,343.13
2018-12-27T09:26:14.128Z,315.00
2018-12-27T09:27:14.096Z,630.00
2018-12-27T09:28:14.045Z,140.63
2018-12-27T09:29:13.999Z,129.38
2018-12-27T09:30:13.951Z,810.00
2018-12-27T09:31:13.922Z,292.50
2018-12-27T09:32:13.853Z,202.50
2018-12-27T09:33:13.830Z,118.13
2018-12-27T09:34:13.914Z,112.50
2018-12-27T09:35:13.718Z,112.50
2018-12-27T09:36:13.687Z,84.38
2018-12-27T09:37:13.641Z,73.13
2018-12-27T09:38:13.583Z,73.13
2018-12-27T09:39:13.560Z,67.50
2018-12-27T09:40:13.501Z,61.88
2018-12-27T09:41:13.455Z,56.25
2018-12-27T09:42:13.415Z,56.25
2018-12-27T09:43:13.357Z,56.25
2018-12-27T09:44:13.333Z,56.25
2018-12-27T09:45:13.274Z,67.50
2018-12-27T09:46:13.229Z,78.75
2018-12-27T09:47:13.189Z,78.75
2018-12-27T09:48:13.152Z,78.75
2018-12-27T09:49:13.098Z,95.63
2018-12-27T09:50:13.040Z,106.88
2018-12-27T09:51:13.016Z,90.00
2018-12-27T09:52:12.972Z,78.75
2018-12-27T09:53:12.925Z,78.75
2018-12-27T09:54:12.869Z,90.00
2018-12-27T09:55:12.821Z,106.88
2018-12-27T09:56:12.781Z,129.38
2018-12-27T09:57:12.722Z,146.25
2018-12-27T09:58:12.684Z,185.63
2018-12-27T09:59:12.655Z,703.13
2018-12-27T10:00:12.586Z,708.75
2018-12-27T10:01:12.547Z,489.38
2018-12-27T10:02:12.496Z,506.25
2018-12-27T10:03:12.465Z,427.50
2018-12-27T10:04:12.413Z,337.50
2018-12-27T10:05:12.367Z,185.63
2018-12-27T10:06:12.327Z,191.25
2018-12-27T10:07:12.271Z,174.38
2018-12-27T10:08:12.232Z,163.13
2018-12-27T10:09:12.180Z,140.63
2018-12-27T10:10:12.157Z,112.50
2018-12-27T10:11:12.103Z,106.88
2018-12-27T10:12:12.054Z,112.50
2018-12-27T10:13:12.013Z,112.50
2018-12-27T10:14:11.977Z,129.38
2018-12-27T10:15:11.932Z,101.25
2018-12-27T10:16:11.873Z,106.88
2018-12-27T10:17:11.824Z,106.88
2018-12-27T10:18:11.789Z,118.13
2018-12-27T10:19:11.745Z,129.38
2018-12-27T10:20:11.707Z,123.75
2018-12-27T10:21:11.662Z,101.25
2018-12-27T10:22:11.604Z,112.50
2018-12-27T10:23:11.560Z,129.38
2018-12-27T10:24:11.507Z,354.38
2018-12-27T10:25:11.474Z,230.63
2018-12-27T10:26:11.437Z,163.13
2018-12-27T10:27:11.384Z,112.50
2018-12-27T10:28:11.347Z,106.88
2018-12-27T10:29:11.296Z,106.88
2018-12-27T10:30:11.236Z,123.75
2018-12-27T10:31:11.190Z,123.75
2018-12-27T10:32:11.147Z,112.50
2018-12-27T10:33:11.103Z,118.13
2018-12-27T10:34:11.068Z,129.38
2018-12-27T10:35:11.023Z,129.38
2018-12-27T10:36:10.972Z,118.13
2018-12-27T10:37:10.919Z,112.50
2018-12-27T10:38:10.882Z,95.63
2018-12-27T10:39:10.842Z,95.63
2018-12-27T10:40:10.791Z,95.63
2018-12-27T10:41:10.746Z,90.00
2018-12-27T10:42:10.704Z,84.38
2018-12-27T10:43:10.661Z,84.38
2018-12-27T10:44:10.618Z,84.38
2018-12-27T10:45:10.570Z,84.38
2018-12-27T10:46:10.520Z,84.38
2018-12-27T10:47:10.492Z,78.75
2018-12-27T10:48:10.424Z,90.00
2018-12-27T10:49:10.391Z,118.13
2018-12-27T10:50:10.353Z,163.13
2018-12-27T10:51:10.295Z,168.75
2018-12-27T10:52:10.241Z,174.38
2018-12-27T10:53:10.204Z,202.50
2018-12-27T10:54:10.157Z,219.38
2018-12-27T10:55:10.112Z,241.88
2018-12-27T10:56:10.082Z,202.50
2018-12-27T10:57:10.027Z,185.63
2018-12-27T10:58:09.983Z,202.50
2018-12-27T10:59:09.946Z,236.25
2018-12-27T11:00:09.886Z,247.50
2018-12-27T11:01:09.836Z,258.75
2018-12-27T11:02:09.801Z,303.75
2018-12-27T11:03:09.744Z,298.13
2018-12-27T11:04:09.699Z,292.50
2018-12-27T11:05:09.675Z,309.38
2018-12-27T11:06:09.621Z,309.38
2018-12-27T11:07:09.582Z,343.13
2018-12-27T11:08:09.519Z,337.50
2018-12-27T11:09:09.496Z,303.75
2018-12-27T11:10:09.443Z,309.38
2018-12-27T11:11:09.406Z,309.38
2018-12-27T11:12:09.354Z,315.00
2018-12-27T11:13:09.310Z,326.25
2018-12-27T11:14:09.260Z,337.50
2018-12-27T11:15:09.220Z,320.63
2018-12-27T11:16:09.171Z,309.38
2018-12-27T11:17:09.119Z,298.13
2018-12-27T11:18:09.082Z,298.13
2018-12-27T11:19:09.031Z,315.00
2018-12-27T11:20:08.986Z,286.88
2018-12-27T11:21:08.943Z,247.50
2018-12-27T11:22:08.899Z,208.13
2018-12-27T11:23:08.878Z,185.63
2018-12-27T11:24:08.832Z,168.75
2018-12-27T11:25:08.978Z,168.75
2018-12-27T11:26:08.735Z,174.38
2018-12-27T11:27:08.686Z,185.63
2018-12-27T11:28:08.643Z,180.00
2018-12-27T11:29:08.590Z,157.50
2018-12-27T11:30:08.555Z,151.88
2018-12-27T11:31:08.510Z,185.63
2018-12-27T11:32:08.467Z,180.00
2018-12-27T11:33:08.426Z,191.25
2018-12-27T11:34:08.385Z,191.25
2018-12-27T11:35:08.325Z,191.25
2018-12-27T11:36:08.302Z,202.50
2018-12-27T11:37:08.245Z,202.50
2018-12-27T11:38:08.214Z,196.88
2018-12-27T11:39:08.171Z,185.63
2018-12-27T11:40:08.120Z,168.75
2018-12-27T11:41:08.082Z,151.88
2018-12-27T11:42:08.037Z,135.00
2018-12-27T11:43:09.606Z,123.75
2018-12-27T11:44:07.929Z,112.50
2018-12-27T11:45:07.905Z,106.88
2018-12-27T11:46:07.842Z,101.25
2018-12-27T11:47:07.795Z,101.25
2018-12-27T11:48:07.751Z,95.63
2018-12-27T11:49:07.714Z,95.63
2018-12-27T11:50:07.736Z,95.63
2018-12-27T11:51:08.765Z,95.63
2018-12-27T11:52:07.574Z,90.00
2018-12-27T11:53:07.531Z,95.63
2018-12-27T11:54:07.497Z,90.00
2018-12-27T11:55:07.461Z,90.00
2018-12-27T11:56:07.403Z,90.00
2018-12-27T11:57:07.364Z,84.38
2018-12-27T11:58:07.321Z,84.38
2018-12-27T11:59:07.287Z,78.75
2018-12-27T12:00:07.223Z,78.75
2018-12-27T12:01:07.187Z,78.75
2018-12-27T12:02:07.128Z,84.38
2018-12-27T12:03:07.091Z,90.00
2018-12-27T12:04:07.054Z,90.00
2018-12-27T12:05:07.002Z,90.00
2018-12-27T12:06:06.950Z,90.00
2018-12-27T12:07:06.928Z,84.38
2018-12-27T12:08:06.860Z,78.75
2018-12-27T12:09:06.837Z,73.13
2018-12-27T12:10:06.771Z,73.13
2018-12-27T12:11:06.740Z,73.13
2018-12-27T12:12:06.691Z,67.50
2018-12-27T12:13:06.645Z,73.13
2018-12-27T12:14:06.592Z,73.13
2018-12-27T12:15:06.560Z,73.13
2018-12-27T12:16:06.525Z,73.13
2018-12-27T12:17:06.466Z,73.13
2018-12-27T12:18:06.426Z,73.13
2018-12-27T12:19:06.369Z,73.13
2018-12-27T12:20:06.336Z,73.13
2018-12-27T12:21:06.286Z,73.13
2018-12-27T12:22:06.255Z,73.13
2018-12-27T12:23:06.210Z,78.75
2018-12-27T12:24:06.147Z,90.00
2018-12-27T12:25:06.108Z,95.63
2018-12-27T12:26:06.068Z,106.88
2018-12-27T12:27:06.022Z,118.13
2018-12-27T12:28:05.973Z,129.38
2018-12-27T12:29:05.920Z,135.00
2018-12-27T12:30:05.897Z,135.00
2018-12-27T12:31:05.831Z,135.00
2018-12-27T12:32:05.807Z,135.00
2018-12-27T12:33:05.741Z,129.38
2018-12-27T12:34:05.697Z,129.38
2018-12-27T12:35:05.660Z,123.75
2018-12-27T12:36:10.507Z,123.75
2018-12-27T12:37:05.584Z,123.75
2018-12-27T12:38:05.539Z,123.75
2018-12-27T12:39:05.482Z,123.75
2018-12-27T12:40:05.436Z,118.13
2018-12-27T12:41:05.384Z,118.13
2018-12-27T12:42:05.347Z,112.50
2018-12-27T12:43:05.308Z,118.13
2018-12-27T12:44:05.263Z,123.75
2018-12-27T12:45:05.207Z,129.38
2018-12-27T12:46:05.182Z,140.63
2018-12-27T12:47:05.129Z,168.75
2018-12-27T12:48:05.085Z,151.88
2018-12-27T12:49:05.035Z,157.50
2018-12-27T12:50:05.000Z,163.13
2018-12-27T12:51:04.951Z,174.38
2018-12-27T12:52:04.894Z,180.00
2018-12-27T12:53:04.863Z,174.38
2018-12-27T12:54:04.809Z,168.75
2018-12-27T12:55:04.761Z,157.50
2018-12-27T12:56:04.717Z,151.88
2018-12-27T12:57:04.689Z,146.25
2018-12-27T12:58:04.649Z,140.63
2018-12-27T12:59:04.596Z,135.00
2018-12-27T13:00:04.560Z,140.63
2018-12-27T13:01:04.495Z,140.63
2018-12-27T13:02:04.472Z,146.25
2018-12-27T13:03:04.419Z,157.50
2018-12-27T13:04:04.374Z,168.75